Skip Navigation Links Skip Navigation Links

Current Weather

Chicago O'Hare Intl, Chicago

For information only: do not use for flight planning or navigation.
Latest weather
Observation time Friday, February 21, 2020 2:51 AM CST
Local time Friday, February 21, 2020 3:34 AM CST
Flight conditions Visual Meteorological Conditions
Winds
Wind direction Southwest (230°)
Wind speed 6 mph
Visibility 10 mi.
Sky condition
Ceiling unlimited
Sky clear
Temperature 14°F
Dewpoint 1°F
Altimeter 30.61 in.Hg
Pressure change last 3 hours0.04 in.Hg
Pressure falling more slowly
Derived measurements
Relative humidity 56%
Wind chill 5°F
Density altitude -3224 ft.
Sea-level pressure 30.64 in.Hg
Remarks
Automated weather observing station with precipitation discriminator.
METAR KORD 210851Z 23005KT 10SM CLR M10/M17 A3061 RMK AO2 SLP377 T11001172 56014

Settings

Location code

InnerDrive.Weather 4.0.6770.0 Release CLR 4.0.30319.42000
Copyright ©2018 Inner Drive Technology. All rights reserved. Portions Copyright ©1986-2018 David Braverman.

Find weather

Site navigation


Skip Navigation Links

Place info

Page info

PayPal - The safer, easier way to pay online!

Return home.

Copyright ©2020 Inner Drive Technology. Purveyors of fine, hand-crafted computer software. Page printed 2020-02-21T09:34:25 UTC.